sensor_id;sensor_type;location;lat;lon;timestamp;pressure;altitude;pressure_sealevel;temperature;humidity
70343;BME280;57767;42.068;24.752;2023-04-29T00:00:13;99058.00;;;9.24;58.60
70343;BME280;57767;42.068;24.752;2023-04-29T00:01:16;99075.41;;;9.25;59.24
70343;BME280;57767;42.068;24.752;2023-04-29T00:02:18;99068.31;;;9.25;58.79
70343;BME280;57767;42.068;24.752;2023-04-29T00:03:20;99071.97;;;9.24;59.41
70343;BME280;57767;42.068;24.752;2023-04-29T00:04:22;99069.28;;;9.18;59.06
70343;BME280;57767;42.068;24.752;2023-04-29T00:05:24;99076.56;;;9.16;59.18
70343;BME280;57767;42.068;24.752;2023-04-29T00:06:26;99074.31;;;9.13;59.55
70343;BME280;57767;42.068;24.752;2023-04-29T00:07:32;99075.34;;;9.12;59.08
70343;BME280;57767;42.068;24.752;2023-04-29T00:08:34;99071.47;;;9.08;58.90
70343;BME280;57767;42.068;24.752;2023-04-29T00:09:35;99072.41;;;9.00;59.66
70343;BME280;57767;42.068;24.752;2023-04-29T00:10:38;99079.50;;;8.99;60.13
70343;BME280;57767;42.068;24.752;2023-04-29T00:11:41;99076.25;;;8.97;60.22
70343;BME280;57767;42.068;24.752;2023-04-29T00:12:42;99081.53;;;8.97;60.21
70343;BME280;57767;42.068;24.752;2023-04-29T00:13:44;99080.28;;;8.93;61.11
70343;BME280;57767;42.068;24.752;2023-04-29T00:14:46;99072.75;;;8.90;60.47
70343;BME280;57767;42.068;24.752;2023-04-29T00:15:48;99079.47;;;8.93;60.92
70343;BME280;57767;42.068;24.752;2023-04-29T00:16:50;99068.66;;;8.88;60.38
70343;BME280;57767;42.068;24.752;2023-04-29T00:17:52;99076.38;;;8.89;60.99
70343;BME280;57767;42.068;24.752;2023-04-29T00:18:54;99075.53;;;8.82;61.11
70343;BME280;57767;42.068;24.752;2023-04-29T00:19:55;99058.00;;;8.68;61.01
70343;BME280;57767;42.068;24.752;2023-04-29T00:20:57;99068.16;;;8.71;61.17
70343;BME280;57767;42.068;24.752;2023-04-29T00:21:59;99065.03;;;8.61;61.21
70343;BME280;57767;42.068;24.752;2023-04-29T00:23:01;99061.00;;;8.65;61.67
70343;BME280;57767;42.068;24.752;2023-04-29T00:24:03;99071.72;;;8.63;61.95
70343;BME280;57767;42.068;24.752;2023-04-29T00:25:06;99064.81;;;8.62;61.62
70343;BME280;57767;42.068;24.752;2023-04-29T00:26:08;99072.31;;;8.59;61.88
70343;BME280;57767;42.068;24.752;2023-04-29T00:27:09;99063.59;;;8.58;61.63
70343;BME280;57767;42.068;24.752;2023-04-29T00:28:12;99073.94;;;8.60;61.44
70343;BME280;57767;42.068;24.752;2023-04-29T00:29:14;99065.22;;;8.59;61.60
70343;BME280;57767;42.068;24.752;2023-04-29T00:30:16;99061.97;;;8.57;60.98
70343;BME280;57767;42.068;24.752;2023-04-29T00:31:17;99067.03;;;8.59;62.04
70343;BME280;57767;42.068;24.752;2023-04-29T00:32:19;99069.06;;;8.57;61.80
70343;BME280;57767;42.068;24.752;2023-04-29T00:33:21;99060.91;;;8.52;61.50
70343;BME280;57767;42.068;24.752;2023-04-29T00:34:23;99071.50;;;8.58;62.06
70343;BME280;57767;42.068;24.752;2023-04-29T00:35:24;99062.53;;;8.53;62.43
70343;BME280;57767;42.068;24.752;2023-04-29T00:36:26;99070.22;;;8.54;62.33
70343;BME280;57767;42.068;24.752;2023-04-29T00:37:28;99065.13;;;8.46;62.35
70343;BME280;57767;42.068;24.752;2023-04-29T00:38:30;99067.16;;;8.51;62.11
70343;BME280;57767;42.068;24.752;2023-04-29T00:39:32;99075.69;;;8.53;61.54
70343;BME280;57767;42.068;24.752;2023-04-29T00:40:34;99078.31;;;8.53;61.57
70343;BME280;57767;42.068;24.752;2023-04-29T00:41:36;99070.56;;;8.45;61.37
70343;BME280;57767;42.068;24.752;2023-04-29T00:42:38;99077.63;;;8.44;62.29
70343;BME280;57767;42.068;24.752;2023-04-29T00:43:40;99075.19;;;8.43;61.83
70343;BME280;57767;42.068;24.752;2023-04-29T00:44:42;99083.72;;;8.45;62.15
70343;BME280;57767;42.068;24.752;2023-04-29T00:45:43;99082.28;;;8.42;61.34
70343;BME280;57767;42.068;24.752;2023-04-29T00:46:47;99085.72;;;8.43;61.45
70343;BME280;57767;42.068;24.752;2023-04-29T00:47:49;99084.91;;;8.42;61.79
70343;BME280;57767;42.068;24.752;2023-04-29T00:48:51;99081.47;;;8.42;61.44
70343;BME280;57767;42.068;24.752;2023-04-29T00:49:52;99086.09;;;8.40;61.07
70343;BME280;57767;42.068;24.752;2023-04-29T00:50:55;99087.09;;;8.39;61.51
70343;BME280;57767;42.068;24.752;2023-04-29T00:51:57;99078.78;;;8.35;60.81
70343;BME280;57767;42.068;24.752;2023-04-29T00:53:00;99075.50;;;8.33;60.46
70343;BME280;57767;42.068;24.752;2023-04-29T00:54:05;99078.78;;;8.35;60.68
70343;BME280;57767;42.068;24.752;2023-04-29T00:55:07;99079.16;;;8.32;60.84
70343;BME280;57767;42.068;24.752;2023-04-29T00:56:11;99073.41;;;8.28;61.28
70343;BME280;57767;42.068;24.752;2023-04-29T00:57:15;99080.47;;;8.28;61.16
70343;BME280;57767;42.068;24.752;2023-04-29T00:58:17;99082.88;;;8.23;61.45
70343;BME280;57767;42.068;24.752;2023-04-29T00:59:21;99057.84;;;8.12;61.47
70343;BME280;57767;42.068;24.752;2023-04-29T01:00:23;99083.88;;;8.22;61.35
70343;BME280;57767;42.068;24.752;2023-04-29T01:01:27;99076.16;;;8.20;61.55
70343;BME280;57767;42.068;24.752;2023-04-29T01:02:29;99073.53;;;8.20;61.76
70343;BME280;57767;42.068;24.752;2023-04-29T01:03:31;99073.91;;;8.17;61.88
70343;BME280;57767;42.068;24.752;2023-04-29T01:04:33;99072.91;;;8.18;62.31
70343;BME280;57767;42.068;24.752;2023-04-29T01:05:35;99081.78;;;8.17;62.20
70343;BME280;57767;42.068;24.752;2023-04-29T01:07:03;99076.09;;;8.14;61.81
70343;BME280;57767;42.068;24.752;2023-04-29T01:10:58;99084.34;;;8.11;60.26
70343;BME280;57767;42.068;24.752;2023-04-29T01:13:28;99079.28;;;8.09;60.64
70343;BME280;57767;42.068;24.752;2023-04-29T01:14:32;99080.13;;;8.10;60.35
70343;BME280;57767;42.068;24.752;2023-04-29T01:16:06;99077.84;;;8.07;60.66
70343;BME280;57767;42.068;24.752;2023-04-29T01:17:16;99074.41;;;8.06;60.99
70343;BME280;57767;42.068;24.752;2023-04-29T01:18:28;99077.22;;;8.05;61.08
70343;BME280;57767;42.068;24.752;2023-04-29T01:19:54;99070.69;;;8.01;60.93
70343;BME280;57767;42.068;24.752;2023-04-29T01:20:57;99075.72;;;7.96;61.95
70343;BME280;57767;42.068;24.752;2023-04-29T01:22:00;99063.38;;;7.96;62.11
70343;BME280;57767;42.068;24.752;2023-04-29T01:23:02;99078.75;;;7.99;61.32
70343;BME280;57767;42.068;24.752;2023-04-29T01:24:04;99077.13;;;7.98;61.57
70343;BME280;57767;42.068;24.752;2023-04-29T01:25:06;99052.72;;;7.83;61.56
70343;BME280;57767;42.068;24.752;2023-04-29T01:26:08;99075.72;;;7.96;61.70
70343;BME280;57767;42.068;24.752;2023-04-29T01:27:20;99064.38;;;7.95;61.77
70343;BME280;57767;42.068;24.752;2023-04-29T01:29:44;99069.34;;;7.90;62.66
70343;BME280;57767;42.068;24.752;2023-04-29T01:30:59;99066.38;;;7.93;62.36
70343;BME280;57767;42.068;24.752;2023-04-29T01:32:12;99058.38;;;7.86;62.36
70343;BME280;57767;42.068;24.752;2023-04-29T01:33:28;99062.75;;;7.94;62.30
70343;BME280;57767;42.068;24.752;2023-04-29T01:34:41;99059.22;;;7.87;62.35
70343;BME280;57767;42.068;24.752;2023-04-29T01:37:27;99066.91;;;7.88;62.32
70343;BME280;57767;42.068;24.752;2023-04-29T01:41:36;99059.22;;;7.87;62.36
70343;BME280;57767;42.068;24.752;2023-04-29T01:42:47;99056.75;;;7.85;63.12
70343;BME280;57767;42.068;24.752;2023-04-29T01:43:55;99050.25;;;7.81;62.87
70343;BME280;57767;42.068;24.752;2023-04-29T01:45:00;99047.88;;;7.86;63.11
70343;BME280;57767;42.068;24.752;2023-04-29T01:46:08;99039.47;;;7.76;63.18
70343;BME280;57767;42.068;24.752;2023-04-29T01:47:12;99051.31;;;7.87;63.29
70343;BME280;57767;42.068;24.752;2023-04-29T01:48:14;99048.09;;;7.85;63.62
70343;BME280;57767;42.068;24.752;2023-04-29T01:49:20;99056.16;;;7.83;63.93
70343;BME280;57767;42.068;24.752;2023-04-29T01:50:23;99045.66;;;7.83;64.03
70343;BME280;57767;42.068;24.752;2023-04-29T01:51:24;99050.25;;;7.81;63.66
70343;BME280;57767;42.068;24.752;2023-04-29T01:52:26;99048.44;;;7.82;63.82
70343;BME280;57767;42.068;24.752;2023-04-29T01:53:29;99039.28;;;7.78;63.72
70343;BME280;57767;42.068;24.752;2023-04-29T01:54:30;99047.44;;;7.83;63.75
70343;BME280;57767;42.068;24.752;2023-04-29T01:55:32;99047.44;;;7.83;63.70
70343;BME280;57767;42.068;24.752;2023-04-29T01:56:34;99038.03;;;7.74;63.64
70343;BME280;57767;42.068;24.752;2023-04-29T01:57:36;99049.09;;;7.84;64.12
70343;BME280;57767;42.068;24.752;2023-04-29T01:58:37;99042.00;;;7.84;63.73
70343;BME280;57767;42.068;24.752;2023-04-29T01:59:39;99050.50;;;7.86;63.87
70343;BME280;57767;42.068;24.752;2023-04-29T02:00:42;99051.25;;;7.80;63.75
70343;BME280;57767;42.068;24.752;2023-04-29T02:01:44;99046.47;;;7.84;63.86
70343;BME280;57767;42.068;24.752;2023-04-29T02:02:46;99044.56;;;7.78;64.24
70343;BME280;57767;42.068;24.752;2023-04-29T02:03:47;99042.38;;;7.81;63.96
70343;BME280;57767;42.068;24.752;2023-04-29T02:04:49;99024.00;;;7.67;63.74
70343;BME280;57767;42.068;24.752;2023-04-29T02:05:52;99050.44;;;7.80;63.34
70343;BME280;57767;42.068;24.752;2023-04-29T02:06:53;99040.75;;;7.80;63.29
70343;BME280;57767;42.068;24.752;2023-04-29T02:07:55;99047.81;;;7.80;63.63
70343;BME280;57767;42.068;24.752;2023-04-29T02:08:57;99046.00;;;7.80;62.98
70343;BME280;57767;42.068;24.752;2023-04-29T02:09:59;99045.38;;;7.78;63.49
70343;BME280;57767;42.068;24.752;2023-04-29T02:11:01;99042.91;;;7.77;63.61
70343;BME280;57767;42.068;24.752;2023-04-29T02:12:03;99048.19;;;7.77;63.35
70343;BME280;57767;42.068;24.752;2023-04-29T02:13:05;99025.00;;;7.66;63.58
70343;BME280;57767;42.068;24.752;2023-04-29T02:14:06;99016.25;;;7.59;63.10
70343;BME280;57767;42.068;24.752;2023-04-29T02:15:08;99048.81;;;7.79;63.58
70343;BME280;57767;42.068;24.752;2023-04-29T02:16:12;99050.09;;;7.83;63.62
70343;BME280;57767;42.068;24.752;2023-04-29T02:17:14;99052.88;;;7.81;63.67
70343;BME280;57767;42.068;24.752;2023-04-29T02:18:16;99053.88;;;7.80;63.74
70343;BME280;57767;42.068;24.752;2023-04-29T02:19:18;99052.06;;;7.81;63.39
70343;BME280;57767;42.068;24.752;2023-04-29T02:20:20;99052.72;;;7.83;63.10
70343;BME280;57767;42.068;24.752;2023-04-29T02:21:21;99050.72;;;7.85;63.44
70343;BME280;57767;42.068;24.752;2023-04-29T02:22:23;99041.81;;;7.86;62.38
70343;BME280;57767;42.068;24.752;2023-04-29T02:23:25;99047.69;;;7.88;62.53
70343;BME280;57767;42.068;24.752;2023-04-29T02:24:26;99048.69;;;7.87;62.37
70343;BME280;57767;42.068;24.752;2023-04-29T02:25:28;99043.19;;;7.82;62.57
70343;BME280;57767;42.068;24.752;2023-04-29T02:26:30;99046.63;;;7.82;62.22
70343;BME280;57767;42.068;24.752;2023-04-29T02:27:33;99060.03;;;7.87;62.75
70343;BME280;57767;42.068;24.752;2023-04-29T02:28:35;99042.84;;;7.85;62.18
70343;BME280;57767;42.068;24.752;2023-04-29T02:29:37;99045.88;;;7.88;62.46
70343;BME280;57767;42.068;24.752;2023-04-29T02:30:38;99049.13;;;7.90;62.04
70343;BME280;57767;42.068;24.752;2023-04-29T02:31:40;99009.50;;;7.71;61.97
70343;BME280;57767;42.068;24.752;2023-04-29T02:32:42;99051.13;;;7.88;62.33
70343;BME280;57767;42.068;24.752;2023-04-29T02:33:44;99007.88;;;7.70;62.52
70343;BME280;57767;42.068;24.752;2023-04-29T02:34:46;99041.06;;;7.92;61.92
70343;BME280;57767;42.068;24.752;2023-04-29T02:35:47;99030.47;;;7.85;61.92
70343;BME280;57767;42.068;24.752;2023-04-29T02:36:49;99035.81;;;7.92;62.51
70343;BME280;57767;42.068;24.752;2023-04-29T02:37:51;99034.19;;;7.91;62.20
70343;BME280;57767;42.068;24.752;2023-04-29T02:38:53;99033.81;;;7.94;62.37
70343;BME280;57767;42.068;24.752;2023-04-29T02:39:56;99039.06;;;7.94;62.17
70343;BME280;57767;42.068;24.752;2023-04-29T02:40:58;99036.63;;;7.93;62.38
70343;BME280;57767;42.068;24.752;2023-04-29T02:41:59;99020.78;;;7.86;61.91
70343;BME280;57767;42.068;24.752;2023-04-29T02:43:02;99036.63;;;7.93;62.26
70343;BME280;57767;42.068;24.752;2023-04-29T02:44:03;99039.44;;;7.91;62.25
70343;BME280;57767;42.068;24.752;2023-04-29T02:45:06;99032.56;;;7.90;62.71
70343;BME280;57767;42.068;24.752;2023-04-29T02:46:08;99030.75;;;7.90;62.43
70343;BME280;57767;42.068;24.752;2023-04-29T02:47:09;99035.81;;;7.92;62.29
70343;BME280;57767;42.068;24.752;2023-04-29T02:48:11;99036.81;;;7.91;62.41
70343;BME280;57767;42.068;24.752;2023-04-29T02:49:13;99036.63;;;7.93;62.32
70343;BME280;57767;42.068;24.752;2023-04-29T02:50:15;99039.06;;;7.94;62.52
70343;BME280;57767;42.068;24.752;2023-04-29T02:51:16;99039.25;;;7.93;62.47
70343;BME280;57767;42.068;24.752;2023-04-29T02:52:18;99034.19;;;7.91;62.23
70343;BME280;57767;42.068;24.752;2023-04-29T02:53:20;99046.34;;;7.92;62.04
70343;BME280;57767;42.068;24.752;2023-04-29T02:54:22;99046.34;;;7.92;61.80
70343;BME280;57767;42.068;24.752;2023-04-29T02:55:24;99041.44;;;7.89;61.69
70343;BME280;57767;42.068;24.752;2023-04-29T02:56:26;99048.16;;;7.91;61.43
70343;BME280;57767;42.068;24.752;2023-04-29T02:57:28;99043.06;;;7.90;61.56
70343;BME280;57767;42.068;24.752;2023-04-29T02:58:30;99045.69;;;7.90;61.38
70343;BME280;57767;42.068;24.752;2023-04-29T02:59:32;99046.69;;;7.89;61.49
70343;BME280;57767;42.068;24.752;2023-04-29T03:00:34;99049.31;;;7.89;61.48
70343;BME280;57767;42.068;24.752;2023-04-29T03:01:36;99047.06;;;7.86;61.78
70343;BME280;57767;42.068;24.752;2023-04-29T03:02:39;99044.81;;;7.83;61.34
70343;BME280;57767;42.068;24.752;2023-04-29T03:03:41;99047.28;;;7.84;61.71
70343;BME280;57767;42.068;24.752;2023-04-29T03:04:46;99058.59;;;7.85;61.88
70343;BME280;57767;42.068;24.752;2023-04-29T03:05:48;99058.78;;;7.83;61.28
70343;BME280;57767;42.068;24.752;2023-04-29T03:06:49;99066.50;;;7.85;61.59
70343;BME280;57767;42.068;24.752;2023-04-29T03:07:51;99056.97;;;7.84;61.62
70343;BME280;57767;42.068;24.752;2023-04-29T03:08:53;99047.53;;;7.75;61.76
70343;BME280;57767;42.068;24.752;2023-04-29T03:09:55;99061.22;;;7.85;61.88
70343;BME280;57767;42.068;24.752;2023-04-29T03:10:56;99058.59;;;7.85;62.16
70343;BME280;57767;42.068;24.752;2023-04-29T03:11:59;99062.84;;;7.86;62.08
70343;BME280;57767;42.068;24.752;2023-04-29T03:13:01;99060.19;;;7.86;63.32
70343;BME280;57767;42.068;24.752;2023-04-29T03:14:03;99060.31;;;7.78;63.33
70343;BME280;57767;42.068;24.752;2023-04-29T03:15:06;99059.63;;;7.69;63.38
70343;BME280;57767;42.068;24.752;2023-04-29T03:16:08;99048.38;;;7.61;63.23
70343;BME280;57767;42.068;24.752;2023-04-29T03:17:11;99058.19;;;7.67;62.92
70343;BME280;57767;42.068;24.752;2023-04-29T03:18:12;99066.34;;;7.72;63.18
70343;BME280;57767;42.068;24.752;2023-04-29T03:19:14;99066.50;;;7.70;63.14
70343;BME280;57767;42.068;24.752;2023-04-29T03:20:17;99075.03;;;7.72;63.26
70343;BME280;57767;42.068;24.752;2023-04-29T03:21:19;99063.06;;;7.70;63.15
70343;BME280;57767;42.068;24.752;2023-04-29T03:22:21;99067.69;;;7.68;63.15
70343;BME280;57767;42.068;24.752;2023-04-29T03:23:23;99061.91;;;7.58;63.35
70343;BME280;57767;42.068;24.752;2023-04-29T03:24:25;99055.75;;;7.50;63.68
70343;BME280;57767;42.068;24.752;2023-04-29T03:25:26;99048.16;;;7.41;63.92
70343;BME280;57767;42.068;24.752;2023-04-29T03:26:29;99061.56;;;7.46;63.80
70343;BME280;57767;42.068;24.752;2023-04-29T03:27:31;99050.97;;;7.39;63.89
70343;BME280;57767;42.068;24.752;2023-04-29T03:28:32;99070.44;;;7.45;64.45
70343;BME280;57767;42.068;24.752;2023-04-29T03:29:34;99072.06;;;7.46;64.24
70343;BME280;57767;42.068;24.752;2023-04-29T03:30:36;99065.53;;;7.42;64.29
70343;BME280;57767;42.068;24.752;2023-04-29T03:31:38;99066.72;;;7.39;64.14
70343;BME280;57767;42.068;24.752;2023-04-29T03:32:39;99065.72;;;7.40;64.38
70343;BME280;57767;42.068;24.752;2023-04-29T03:33:42;99068.81;;;7.44;64.58
70343;BME280;57767;42.068;24.752;2023-04-29T03:34:44;99072.06;;;7.46;64.53
70343;BME280;57767;42.068;24.752;2023-04-29T03:35:46;99071.50;;;7.50;64.65
70343;BME280;57767;42.068;24.752;2023-04-29T03:36:47;99080.03;;;7.52;64.54
70343;BME280;57767;42.068;24.752;2023-04-29T03:37:49;99073.13;;;7.51;64.26
70343;BME280;57767;42.068;24.752;2023-04-29T03:38:51;99071.34;;;7.52;64.35
70343;BME280;57767;42.068;24.752;2023-04-29T03:39:52;99071.34;;;7.52;64.71
70343;BME280;57767;42.068;24.752;2023-04-29T03:40:55;99071.34;;;7.52;64.54
70343;BME280;57767;42.068;24.752;2023-04-29T03:41:59;99071.16;;;7.53;64.01
70343;BME280;57767;42.068;24.752;2023-04-29T03:43:02;99075.06;;;7.58;64.65
70343;BME280;57767;42.068;24.752;2023-04-29T03:44:04;99073.84;;;7.60;64.53
70343;BME280;57767;42.068;24.752;2023-04-29T03:45:06;99081.19;;;7.65;63.99
70343;BME280;57767;42.068;24.752;2023-04-29T03:46:09;99084.09;;;7.70;63.89
70343;BME280;57767;42.068;24.752;2023-04-29T03:47:11;99079.09;;;7.75;63.87
70343;BME280;57767;42.068;24.752;2023-04-29T03:48:14;99065.06;;;7.68;64.53
70343;BME280;57767;42.068;24.752;2023-04-29T03:49:16;99081.34;;;7.78;64.06
70343;BME280;57767;42.068;24.752;2023-04-29T03:50:17;99081.81;;;7.81;64.30
70343;BME280;57767;42.068;24.752;2023-04-29T03:51:19;99080.63;;;7.84;64.69
70343;BME280;57767;42.068;24.752;2023-04-29T03:52:22;99082.50;;;7.90;64.35
70343;BME280;57767;42.068;24.752;2023-04-29T03:53:23;99082.78;;;7.95;64.29
70343;BME280;57767;42.068;24.752;2023-04-29T03:54:27;99088.91;;;8.02;64.66
70343;BME280;57767;42.068;24.752;2023-04-29T03:55:28;99097.50;;;8.11;64.27
70343;BME280;57767;42.068;24.752;2023-04-29T03:56:30;99086.06;;;8.18;63.41
70343;BME280;57767;42.068;24.752;2023-04-29T03:57:32;99087.75;;;8.26;63.95
70343;BME280;57767;42.068;24.752;2023-04-29T03:58:33;99087.66;;;8.34;64.76
70343;BME280;57767;42.068;24.752;2023-04-29T03:59:35;99099.31;;;8.46;64.26
70343;BME280;57767;42.068;24.752;2023-04-29T04:00:37;99091.09;;;8.56;63.69
70343;BME280;57767;42.068;24.752;2023-04-29T04:01:39;99095.03;;;8.67;62.93
70343;BME280;57767;42.068;24.752;2023-04-29T04:02:41;99087.63;;;8.77;63.03
70343;BME280;57767;42.068;24.752;2023-04-29T04:03:43;99091.56;;;8.87;62.20
70343;BME280;57767;42.068;24.752;2023-04-29T04:04:47;99094.69;;;8.97;62.03
70343;BME280;57767;42.068;24.752;2023-04-29T04:05:49;99091.91;;;9.06;62.43
70343;BME280;57767;42.068;24.752;2023-04-29T04:06:51;99092.00;;;9.19;62.87
70343;BME280;57767;42.068;24.752;2023-04-29T04:07:53;99095.91;;;9.29;62.86
70343;BME280;57767;42.068;24.752;2023-04-29T04:08:55;99109.34;;;9.41;61.33
70343;BME280;57767;42.068;24.752;2023-04-29T04:09:57;99092.53;;;9.42;61.43
70343;BME280;57767;42.068;24.752;2023-04-29T04:11:02;99092.38;;;9.50;62.38
70343;BME280;57767;42.068;24.752;2023-04-29T04:12:05;99091.47;;;9.71;61.08
70343;BME280;57767;42.068;24.752;2023-04-29T04:13:07;99090.28;;;9.80;60.20
70343;BME280;57767;42.068;24.752;2023-04-29T04:14:08;99096.81;;;9.91;59.54
70343;BME280;57767;42.068;24.752;2023-04-29T04:15:10;99103.56;;;10.00;59.51
70343;BME280;57767;42.068;24.752;2023-04-29T04:16:12;99096.28;;;10.09;59.37
70343;BME280;57767;42.068;24.752;2023-04-29T04:17:14;99095.69;;;10.13;58.13
70343;BME280;57767;42.068;24.752;2023-04-29T04:18:16;99089.22;;;10.22;56.67
70343;BME280;57767;42.068;24.752;2023-04-29T04:19:18;99096.34;;;10.28;56.97
70343;BME280;57767;42.068;24.752;2023-04-29T04:20:19;99092.09;;;10.34;57.26
70343;BME280;57767;42.068;24.752;2023-04-29T04:21:21;99089.88;;;10.37;57.18
70343;BME280;57767;42.068;24.752;2023-04-29T04:22:23;99080.34;;;10.36;57.27
70343;BME280;57767;42.068;24.752;2023-04-29T04:23:25;99094.56;;;10.49;57.26
70343;BME280;57767;42.068;24.752;2023-04-29T04:24:27;99094.13;;;10.52;57.52
70343;BME280;57767;42.068;24.752;2023-04-29T04:25:28;99095.56;;;10.54;58.26
70343;BME280;57767;42.068;24.752;2023-04-29T04:26:30;99098.03;;;10.62;56.85
70343;BME280;57767;42.068;24.752;2023-04-29T04:27:32;99096.59;;;10.66;56.90
70343;BME280;57767;42.068;24.752;2023-04-29T04:28:34;99082.78;;;10.71;56.59
70343;BME280;57767;42.068;24.752;2023-04-29T04:29:36;99099.66;;;10.83;57.19
70343;BME280;57767;42.068;24.752;2023-04-29T04:30:37;99093.53;;;10.89;58.97
70343;BME280;57767;42.068;24.752;2023-04-29T04:31:39;99096.59;;;10.99;59.02
70343;BME280;57767;42.068;24.752;2023-04-29T04:32:41;99094.16;;;11.11;58.96
70343;BME280;57767;42.068;24.752;2023-04-29T04:33:43;99094.34;;;11.23;57.06
70343;BME280;57767;42.068;24.752;2023-04-29T04:34:44;99096.56;;;11.39;55.74
70343;BME280;57767;42.068;24.752;2023-04-29T04:35:46;99086.75;;;11.46;55.78
70343;BME280;57767;42.068;24.752;2023-04-29T04:36:48;99092.22;;;11.64;56.68
70343;BME280;57767;42.068;24.752;2023-04-29T04:37:50;99090.94;;;11.80;56.12
70343;BME280;57767;42.068;24.752;2023-04-29T04:38:51;99080.09;;;11.95;57.41
70343;BME280;57767;42.068;24.752;2023-04-29T04:39:53;99089.34;;;12.17;55.24
70343;BME280;57767;42.068;24.752;2023-04-29T04:40:55;99085.16;;;12.41;54.66
70343;BME280;57767;42.068;24.752;2023-04-29T04:41:57;99085.22;;;12.59;55.33
70343;BME280;57767;42.068;24.752;2023-04-29T04:42:59;99087.94;;;12.77;53.44
70343;BME280;57767;42.068;24.752;2023-04-29T04:44:01;99086.94;;;12.97;52.51
70343;BME280;57767;42.068;24.752;2023-04-29T04:45:03;99088.22;;;13.12;51.46
70343;BME280;57767;42.068;24.752;2023-04-29T04:46:12;99099.69;;;13.31;51.00
70343;BME280;57767;42.068;24.752;2023-04-29T04:47:14;99098.19;;;13.42;49.90
70343;BME280;57767;42.068;24.752;2023-04-29T04:48:16;99090.31;;;13.53;49.09
70343;BME280;57767;42.068;24.752;2023-04-29T04:49:18;99095.91;;;13.63;48.45
70343;BME280;57767;42.068;24.752;2023-04-29T04:50:20;99082.75;;;13.69;48.31
70343;BME280;57767;42.068;24.752;2023-04-29T04:51:21;99093.53;;;13.74;48.54
70343;BME280;57767;42.068;24.752;2023-04-29T04:52:23;99098.63;;;13.75;48.19
70343;BME280;57767;42.068;24.752;2023-04-29T04:53:25;99101.06;;;13.77;49.38
70343;BME280;57767;42.068;24.752;2023-04-29T04:54:27;99102.22;;;13.81;49.52
70343;BME280;57767;42.068;24.752;2023-04-29T04:55:28;99111.13;;;13.86;50.04
70343;BME280;57767;42.068;24.752;2023-04-29T04:56:32;99110.00;;;13.94;49.68
70343;BME280;57767;42.068;24.752;2023-04-29T04:57:35;99102.34;;;14.04;50.86
70343;BME280;57767;42.068;24.752;2023-04-29T04:58:37;99115.53;;;14.11;50.05
70343;BME280;57767;42.068;24.752;2023-04-29T04:59:39;99117.75;;;14.14;48.85
70343;BME280;57767;42.068;24.752;2023-04-29T05:00:44;99111.53;;;14.20;48.30
70343;BME280;57767;42.068;24.752;2023-04-29T05:01:46;99115.03;;;14.32;47.93
70343;BME280;57767;42.068;24.752;2023-04-29T05:02:48;99113.88;;;14.28;47.23
70343;BME280;57767;42.068;24.752;2023-04-29T05:03:50;99114.47;;;14.30;47.22
70343;BME280;57767;42.068;24.752;2023-04-29T05:04:52;99116.09;;;14.31;47.42
70343;BME280;57767;42.068;24.752;2023-04-29T05:05:54;99116.53;;;14.28;46.74
70343;BME280;57767;42.068;24.752;2023-04-29T05:06:56;99116.97;;;14.25;47.19
70343;BME280;57767;42.068;24.752;2023-04-29T05:07:58;99125.75;;;14.25;46.52
70343;BME280;57767;42.068;24.752;2023-04-29T05:09:00;99121.69;;;14.23;47.21
70343;BME280;57767;42.068;24.752;2023-04-29T05:10:02;99117.75;;;14.14;47.96
70343;BME280;57767;42.068;24.752;2023-04-29T05:11:04;99123.66;;;14.16;46.75
70343;BME280;57767;42.068;24.752;2023-04-29T05:12:06;99123.06;;;14.14;47.48
70343;BME280;57767;42.068;24.752;2023-04-29T05:13:08;99117.75;;;14.14;46.64
70343;BME280;57767;42.068;24.752;2023-04-29T05:14:10;99118.56;;;14.14;46.62
70343;BME280;57767;42.068;24.752;2023-04-29T05:15:12;99125.13;;;14.12;47.27
70343;BME280;57767;42.068;24.752;2023-04-29T05:16:15;99117.31;;;14.17;46.94
70343;BME280;57767;42.068;24.752;2023-04-29T05:17:18;99122.88;;;14.27;46.00
70343;BME280;57767;42.068;24.752;2023-04-29T05:18:20;99119.19;;;14.28;45.46
70343;BME280;57767;42.068;24.752;2023-04-29T05:19:22;99116.28;;;14.18;45.34
70343;BME280;57767;42.068;24.752;2023-04-29T05:20:23;99104.69;;;14.12;44.99
70343;BME280;57767;42.068;24.752;2023-04-29T05:21:25;99112.44;;;14.14;44.69
70343;BME280;57767;42.068;24.752;2023-04-29T05:22:30;99119.91;;;14.05;45.30
70343;BME280;57767;42.068;24.752;2023-04-29T05:23:32;99117.91;;;14.01;45.10
70343;BME280;57767;42.068;24.752;2023-04-29T05:24:33;99121.69;;;13.93;45.09
70343;BME280;57767;42.068;24.752;2023-04-29T05:25:35;99115.25;;;13.82;45.36
70343;BME280;57767;42.068;24.752;2023-04-29T05:26:37;99126.78;;;13.76;46.02
70343;BME280;57767;42.068;24.752;2023-04-29T05:27:39;99126.41;;;13.73;46.25
70343;BME280;57767;42.068;24.752;2023-04-29T05:28:40;99121.75;;;13.68;46.04
70343;BME280;57767;42.068;24.752;2023-04-29T05:29:42;99117.13;;;13.63;46.21
70343;BME280;57767;42.068;24.752;2023-04-29T05:30:44;99117.56;;;13.60;46.80
70343;BME280;57767;42.068;24.752;2023-04-29T05:31:46;99112.69;;;13.57;47.97
70343;BME280;57767;42.068;24.752;2023-04-29T05:32:48;99113.00;;;13.68;49.16
70343;BME280;57767;42.068;24.752;2023-04-29T05:33:50;99093.31;;;13.75;47.01
70343;BME280;57767;42.068;24.752;2023-04-29T05:34:51;99108.91;;;13.83;46.07
70343;BME280;57767;42.068;24.752;2023-04-29T05:35:53;99101.78;;;13.84;45.97
70343;BME280;57767;42.068;24.752;2023-04-29T05:36:55;99103.94;;;13.75;45.61
70343;BME280;57767;42.068;24.752;2023-04-29T05:37:57;99098.41;;;13.77;46.32
70343;BME280;57767;42.068;24.752;2023-04-29T05:38:59;99100.25;;;13.76;46.84
70343;BME280;57767;42.068;24.752;2023-04-29T05:40:01;99089.84;;;13.75;46.90
70343;BME280;57767;42.068;24.752;2023-04-29T05:41:03;99092.41;;;13.81;47.37